< Cyclone 201917 2019 Season Cyclone 201920 >
Cyclone 201919 (Veronica)
General InformationTrack Information on Google MapsDetailed Wind InformationList of All Images || ResourceGoogle EarthGE AnimationAtom FeedGeoJSON
Detalied Best Track (Time Zone = UTC)
Year Month Day Hour Lat. Long. Pressure (hPa) Wind (kt) Class Image Chart
2019 3 18 00 -12.9 122.7 1006 20 2 Image --
2019 3 18 06 -13.1 122.7 1005 20 2 Image --
2019 3 18 12 -13.3 122.4 1003 25 2 Image --
2019 3 18 18 -13.7 121.7 1002 25 2 Image --
2019 3 19 00 -13.9 120.8 1001 30 2 Image --
2019 3 19 06 -14.0 120.4 1000 30 2 Image --
2019 3 19 12 -14.1 120.3 997 35 3 Image --
2019 3 19 18 -15.0 120.0 991 45 3 Image --
2019 3 20 00 -15.1 119.1 990 50 4 Image --
2019 3 20 06 -15.4 118.3 979 65 5 Image --
2019 3 20 12 -15.7 118.0 968 75 5 Image --
2019 3 20 18 -15.8 117.6 954 90 5 Image --
2019 3 21 00 -16.3 117.7 928 115 5 Image --
2019 3 21 06 -16.8 117.5 928 115 5 Image --
2019 3 21 12 -17.2 117.3 938 105 5 Image --
2019 3 21 18 -17.4 117.0 943 100 5 Image --
2019 3 22 00 -17.5 116.9 945 95 5 Image --
2019 3 22 06 -17.6 116.9 945 95 5 Image --
2019 3 22 12 -17.8 116.9 945 95 5 Image --
2019 3 22 18 -18.1 117.0 945 95 5 Image --
2019 3 23 00 -18.5 117.0 951 90 5 Image --
2019 3 23 06 -18.9 117.1 951 90 5 Image --
2019 3 23 12 -19.2 117.3 950 90 5 Image --
2019 3 23 18 -19.6 117.5 944 95 5 Image --
2019 3 24 00 -19.9 117.6 941 95 5 Image --
2019 3 24 06 -20.0 117.6 942 95 5 Image --
2019 3 24 12 -20.2 117.7 947 90 5 Image --
2019 3 24 18 -20.2 117.7 954 80 5 Image --
2019 3 25 00 -20.3 117.5 975 60 4 Image --
2019 3 25 06 -20.3 117.1 985 45 3 Image --
2019 3 25 12 -20.3 116.9 988 40 3 Image --
2019 3 25 18 -20.3 116.4 993 35 3 Image --
2019 3 26 00 -20.8 115.7 1000 30 2 Image --
2019 3 26 06 -21.4 114.9 1000 30 2 Image --
2019 3 26 12 -21.7 114.4 1000 30 2 Image --
2019 3 26 18 -21.8 113.6 1000 30 2 Image --
2019 3 27 00 -22.2 112.8 1002 30 2 Image --
2019 3 27 06 -22.8 112.3 1002 30 2 Image --
2019 3 27 12 -22.8 112.0 1002 30 2 Image --
2019 3 27 18 -22.5 111.2 1002 30 2 Image --
2019 3 28 00 -22.1 110.2 1003 30 2 Image --
< Cyclone 201917 2019 Season Cyclone 201920 >

Help